createdAt,value
2023-04-04T00:00:21.073Z,69.29
2023-04-04T00:01:21.093Z,71.27
2023-04-04T00:02:21.113Z,70.23
2023-04-04T00:03:21.168Z,68.98
2023-04-04T00:04:21.095Z,67.73
2023-04-04T00:05:21.051Z,68.01
2023-04-04T00:06:21.066Z,68.15
2023-04-04T00:07:21.022Z,68.46
2023-04-04T00:08:21.089Z,68.46
2023-04-04T00:09:21.006Z,68.88
2023-04-04T00:10:21.000Z,68.66
2023-04-04T00:11:21.015Z,67.00
2023-04-04T00:12:21.311Z,68.22
2023-04-04T00:13:20.975Z,68.77
2023-04-04T00:14:20.966Z,66.80
2023-04-04T00:15:20.958Z,65.62
2023-04-04T00:16:21.026Z,66.48
2023-04-04T00:17:20.940Z,65.93
2023-04-04T00:18:20.932Z,67.18
2023-04-04T00:19:20.922Z,67.80
2023-04-04T00:20:20.922Z,66.97
2023-04-04T00:21:20.939Z,65.93
2023-04-04T00:22:20.912Z,67.91
2023-04-04T00:23:20.898Z,68.12
2023-04-04T00:24:20.889Z,69.37
2023-04-04T00:25:20.877Z,70.23
2023-04-04T00:26:20.907Z,71.37
2023-04-04T00:27:20.874Z,70.64
2023-04-04T00:28:20.854Z,70.64
2023-04-04T00:29:20.856Z,71.61
2023-04-04T00:30:20.876Z,70.15
2023-04-04T00:31:20.962Z,69.92
2023-04-04T00:32:20.901Z,71.41
2023-04-04T00:33:20.845Z,71.79
2023-04-04T00:34:20.805Z,71.27
2023-04-04T00:35:20.805Z,71.17
2023-04-04T00:36:20.818Z,70.54
2023-04-04T00:37:20.789Z,70.02
2023-04-04T00:38:20.774Z,71.27
2023-04-04T00:39:20.779Z,70.23
2023-04-04T00:40:20.758Z,73.14
2023-04-04T00:41:20.780Z,72.72
2023-04-04T00:42:20.753Z,70.05
2023-04-04T00:43:20.746Z,69.95
2023-04-04T00:44:20.748Z,70.23
2023-04-04T00:45:20.721Z,71.89
2023-04-04T00:46:20.748Z,71.17
2023-04-04T00:47:20.704Z,70.75
2023-04-04T00:48:20.705Z,70.75
2023-04-04T00:49:20.721Z,70.54
2023-04-04T00:50:20.702Z,71.06
2023-04-04T00:51:20.720Z,71.27
2023-04-04T00:52:20.678Z,71.17
2023-04-04T00:53:20.662Z,71.17
2023-04-04T00:54:20.661Z,71.37
2023-04-04T00:55:20.650Z,72.03
2023-04-04T00:56:20.684Z,72.52
2023-04-04T00:57:20.639Z,72.03
2023-04-04T00:58:20.635Z,70.36
2023-04-04T00:59:20.674Z,70.85
2023-04-04T01:00:20.629Z,72.20
2023-04-04T01:01:20.670Z,72.45
2023-04-04T01:02:20.606Z,70.99
2023-04-04T01:03:20.598Z,70.36
2023-04-04T01:04:20.677Z,71.17
2023-04-04T01:05:20.586Z,71.17
2023-04-04T01:06:20.606Z,71.69
2023-04-04T01:07:20.569Z,71.27
2023-04-04T01:08:20.564Z,69.74
2023-04-04T01:09:20.551Z,71.09
2023-04-04T01:10:20.542Z,71.82
2023-04-04T01:11:20.570Z,71.51
2023-04-04T01:12:20.525Z,70.68
2023-04-04T01:13:20.519Z,71.51
2023-04-04T01:14:20.510Z,70.57
2023-04-04T01:15:20.516Z,70.99
2023-04-04T01:16:20.532Z,71.30
2023-04-04T01:17:20.482Z,72.03
2023-04-04T01:18:20.476Z,71.20
2023-04-04T01:19:20.470Z,71.79
2023-04-04T01:20:20.466Z,71.37
2023-04-04T01:21:20.475Z,72.24
2023-04-04T01:22:20.441Z,72.66
2023-04-04T01:23:20.434Z,71.82
2023-04-04T01:24:20.431Z,72.45
2023-04-04T01:25:20.431Z,73.38
2023-04-04T01:26:20.453Z,74.46
2023-04-04T01:27:20.411Z,72.76
2023-04-04T01:28:20.390Z,72.97
2023-04-04T01:29:20.385Z,72.76
2023-04-04T01:30:20.376Z,72.66
2023-04-04T01:31:20.415Z,72.45
2023-04-04T01:32:20.381Z,72.76
2023-04-04T01:33:20.363Z,71.61
2023-04-04T01:34:20.362Z,72.66
2023-04-04T01:35:20.350Z,74.21
2023-04-04T01:36:20.374Z,71.82
2023-04-04T01:37:20.322Z,72.45
2023-04-04T01:38:20.320Z,71.96
2023-04-04T01:39:20.313Z,71.61
2023-04-04T01:40:20.310Z,73.18
2023-04-04T01:41:20.382Z,74.32
2023-04-04T01:42:20.292Z,72.45
2023-04-04T01:43:20.281Z,72.76
2023-04-04T01:44:20.276Z,73.49
2023-04-04T01:45:20.278Z,71.96
2023-04-04T01:46:20.324Z,72.79
2023-04-04T01:47:20.282Z,74.15
2023-04-04T01:48:20.252Z,73.94
2023-04-04T01:49:20.246Z,74.25
2023-04-04T01:50:20.246Z,73.94
2023-04-04T01:51:20.230Z,74.66
2023-04-04T01:52:20.239Z,74.66
2023-04-04T01:53:20.213Z,74.46
2023-04-04T01:54:20.214Z,74.56
2023-04-04T01:55:20.198Z,73.63
2023-04-04T01:56:20.198Z,74.35
2023-04-04T01:57:20.208Z,74.91
2023-04-04T01:58:20.185Z,74.15
2023-04-04T01:59:20.206Z,74.35
2023-04-04T02:00:20.161Z,73.14
2023-04-04T02:01:20.239Z,72.83
2023-04-04T02:02:20.165Z,73.83
2023-04-04T02:03:20.150Z,73.03
2023-04-04T02:04:20.158Z,73.24
2023-04-04T02:05:20.130Z,72.69
2023-04-04T02:06:20.114Z,72.41
2023-04-04T02:07:20.137Z,72.27
2023-04-04T02:08:20.112Z,71.99
2023-04-04T02:09:20.098Z,73.00
2023-04-04T02:10:20.100Z,74.49
2023-04-04T02:11:20.089Z,74.39
2023-04-04T02:12:20.117Z,72.93
2023-04-04T02:13:20.064Z,73.24
2023-04-04T02:14:20.063Z,74.07
2023-04-04T02:15:20.049Z,74.63
2023-04-04T02:16:20.158Z,75.43
2023-04-04T02:17:20.055Z,74.49
2023-04-04T02:18:20.036Z,74.21
2023-04-04T02:19:20.025Z,75.15
2023-04-04T02:20:20.026Z,74.42
2023-04-04T02:21:20.014Z,74.32
2023-04-04T02:22:20.038Z,74.35
2023-04-04T02:23:19.987Z,73.72
2023-04-04T02:24:19.994Z,74.11
2023-04-04T02:25:19.975Z,74.11
2023-04-04T02:26:19.973Z,75.05
2023-04-04T02:27:19.988Z,74.66
2023-04-04T02:28:19.950Z,74.15
2023-04-04T02:29:19.946Z,73.21
2023-04-04T02:30:19.938Z,73.62
2023-04-04T02:31:19.959Z,73.10
2023-04-04T02:32:19.948Z,72.37
2023-04-04T02:33:19.911Z,73.00
2023-04-04T02:34:19.903Z,72.68
2023-04-04T02:35:19.897Z,71.53
2023-04-04T02:36:19.949Z,71.15
2023-04-04T02:37:19.913Z,70.91
2023-04-04T02:38:19.866Z,70.70
2023-04-04T02:39:19.864Z,71.33
2023-04-04T02:40:19.875Z,71.88
2023-04-04T02:41:19.855Z,72.89
2023-04-04T02:42:19.871Z,73.13
2023-04-04T02:43:19.839Z,73.34
2023-04-04T02:44:19.828Z,72.44
2023-04-04T02:45:19.822Z,71.36
2023-04-04T02:46:21.937Z,72.72
2023-04-04T02:47:20.833Z,71.88
2023-04-04T02:48:19.803Z,70.81
2023-04-04T02:49:19.798Z,68.96
2023-04-04T02:50:19.795Z,69.13
2023-04-04T02:51:19.783Z,69.79
2023-04-04T02:52:19.804Z,70.39
2023-04-04T02:53:19.766Z,73.24
2023-04-04T02:54:19.759Z,74.60
2023-04-04T02:55:19.751Z,76.61
2023-04-04T02:56:19.760Z,76.44
2023-04-04T02:57:19.764Z,77.69
2023-04-04T02:58:19.733Z,77.48
2023-04-04T02:59:19.765Z,78.53
2023-04-04T03:00:19.733Z,79.71
2023-04-04T03:01:19.738Z,79.92
2023-04-04T03:02:19.885Z,79.71
2023-04-04T03:03:19.959Z,79.33
2023-04-04T03:04:19.695Z,80.38
2023-04-04T03:05:19.682Z,81.11
2023-04-04T03:06:19.671Z,81.21
2023-04-04T03:07:19.693Z,81.15
2023-04-04T03:08:19.666Z,80.58
2023-04-04T03:09:19.670Z,80.69
2023-04-04T03:10:19.642Z,80.38
2023-04-04T03:11:19.635Z,79.85
2023-04-04T03:12:19.654Z,80.27
2023-04-04T03:13:19.624Z,79.12
2023-04-04T03:14:19.611Z,79.12
2023-04-04T03:15:19.611Z,79.22
2023-04-04T03:16:19.667Z,79.12
2023-04-04T03:17:19.604Z,79.22
2023-04-04T03:18:19.613Z,78.91
2023-04-04T03:19:19.575Z,79.12
2023-04-04T03:20:19.574Z,79.12
2023-04-04T03:21:19.557Z,79.44
2023-04-04T03:22:19.551Z,79.44
2023-04-04T03:23:19.573Z,80.06
2023-04-04T03:24:19.562Z,79.54
2023-04-04T03:25:19.535Z,80.06
2023-04-04T03:26:19.530Z,79.79
2023-04-04T03:27:19.526Z,79.26
2023-04-04T03:28:19.545Z,81.56
2023-04-04T03:29:19.497Z,82.02
2023-04-04T03:30:19.513Z,82.23
2023-04-04T03:31:19.481Z,83.06
2023-04-04T03:32:19.469Z,82.86
2023-04-04T03:33:19.506Z,83.21
2023-04-04T03:34:19.474Z,83.31
2023-04-04T03:35:19.469Z,83.10
2023-04-04T03:36:19.454Z,83.45
2023-04-04T03:37:19.437Z,84.19
2023-04-04T03:38:19.460Z,84.92
2023-04-04T03:39:19.436Z,84.81
2023-04-04T03:40:19.424Z,84.85
2023-04-04T03:41:19.423Z,85.27
2023-04-04T03:42:19.415Z,85.69
2023-04-04T03:43:19.429Z,86.32
2023-04-04T03:44:19.389Z,86.85
2023-04-04T03:45:19.385Z,86.88
2023-04-04T03:46:19.470Z,87.62
2023-04-04T03:47:19.420Z,88.14
2023-04-04T03:48:19.376Z,87.66
2023-04-04T03:49:19.357Z,88.39
2023-04-04T03:50:19.343Z,88.71
2023-04-04T03:51:19.329Z,89.02
2023-04-04T03:52:19.322Z,88.81
2023-04-04T03:53:19.343Z,88.92
2023-04-04T03:54:19.309Z,88.92
2023-04-04T03:55:19.306Z,88.92
2023-04-04T03:56:19.294Z,89.37
2023-04-04T03:57:19.290Z,89.17
2023-04-04T03:58:19.310Z,90.11
2023-04-04T03:59:19.296Z,90.22
2023-04-04T04:00:19.270Z,89.27
2023-04-04T04:01:19.258Z,89.27
2023-04-04T04:02:19.277Z,89.27
2023-04-04T04:03:19.342Z,90.00
2023-04-04T04:04:19.290Z,90.00
2023-04-04T04:05:19.238Z,89.37
2023-04-04T04:06:19.221Z,89.90
2023-04-04T04:07:19.211Z,89.94
2023-04-04T04:08:19.232Z,90.25
2023-04-04T04:09:19.220Z,89.84
2023-04-04T04:10:19.202Z,90.25
2023-04-04T04:11:19.212Z,89.73
2023-04-04T04:12:19.189Z,90.36
2023-04-04T04:13:19.194Z,90.25
2023-04-04T04:14:19.156Z,90.32
2023-04-04T04:15:19.158Z,90.78
2023-04-04T04:16:19.197Z,90.57
2023-04-04T04:17:19.143Z,90.36
2023-04-04T04:18:19.167Z,90.57
2023-04-04T04:19:19.136Z,90.99
2023-04-04T04:20:19.124Z,91.56
2023-04-04T04:21:19.114Z,91.56
2023-04-04T04:22:19.096Z,91.97
2023-04-04T04:23:19.122Z,91.94
2023-04-04T04:24:19.085Z,91.14
2023-04-04T04:25:19.078Z,91.56
2023-04-04T04:26:19.082Z,91.20
2023-04-04T04:27:19.083Z,91.72
2023-04-04T04:28:19.090Z,91.66
2023-04-04T04:29:19.059Z,91.72
2023-04-04T04:30:19.053Z,92.08
2023-04-04T04:31:19.090Z,91.83
2023-04-04T04:32:19.044Z,91.77
2023-04-04T04:33:19.043Z,91.87
2023-04-04T04:34:19.030Z,92.19
2023-04-04T04:35:19.004Z,91.97
2023-04-04T04:36:19.045Z,92.50
2023-04-04T04:37:18.996Z,92.71
2023-04-04T04:38:19.003Z,92.71
2023-04-04T04:39:18.975Z,92.65
2023-04-04T04:40:18.973Z,93.02
2023-04-04T04:41:18.963Z,92.23
2023-04-04T04:42:18.959Z,92.61
2023-04-04T04:43:18.978Z,92.50
2023-04-04T04:44:18.940Z,92.71
2023-04-04T04:45:18.928Z,93.55
2023-04-04T04:46:18.962Z,92.61
2023-04-04T04:47:18.913Z,92.92
2023-04-04T04:48:18.947Z,92.40
2023-04-04T04:49:18.955Z,93.02
2023-04-04T04:50:18.893Z,92.71
2023-04-04T04:51:18.886Z,92.92
2023-04-04T04:52:18.874Z,92.82
2023-04-04T04:53:18.890Z,92.40
2023-04-04T04:54:18.864Z,92.71
2023-04-04T04:55:18.856Z,92.92
2023-04-04T04:56:18.843Z,92.92
2023-04-04T04:57:18.837Z,92.77
2023-04-04T04:58:18.855Z,92.67
2023-04-04T04:59:18.917Z,92.50
2023-04-04T05:00:18.821Z,92.35
2023-04-04T05:01:18.832Z,92.14
2023-04-04T05:02:18.827Z,91.83
2023-04-04T05:03:18.831Z,92.14
2023-04-04T05:04:18.791Z,92.14
2023-04-04T05:05:18.788Z,91.83
2023-04-04T05:06:18.764Z,91.94
2023-04-04T05:07:18.762Z,91.47
2023-04-04T05:08:18.783Z,91.47
2023-04-04T05:09:18.746Z,91.58
2023-04-04T05:10:18.735Z,91.47
2023-04-04T05:11:18.728Z,91.37
2023-04-04T05:12:18.716Z,91.75
2023-04-04T05:13:18.735Z,91.46
2023-04-04T05:14:18.704Z,89.55
2023-04-04T05:15:18.705Z,87.96
2023-04-04T05:16:18.714Z,86.63
2023-04-04T05:17:18.701Z,84.36
2023-04-04T05:18:18.696Z,83.14
2023-04-04T05:19:18.719Z,81.12
2023-04-04T05:20:18.654Z,79.35
2023-04-04T05:21:18.645Z,77.82
2023-04-04T05:22:18.638Z,76.23
2023-04-04T05:23:18.647Z,74.53
2023-04-04T05:24:18.624Z,74.15
2023-04-04T05:25:18.623Z,72.53
2023-04-04T05:26:19.617Z,71.49
2023-04-04T05:27:18.599Z,70.70
2023-04-04T05:28:18.659Z,69.92
2023-04-04T05:29:18.612Z,68.71
2023-04-04T05:30:18.574Z,66.82
2023-04-04T05:31:18.729Z,65.97
2023-04-04T05:32:18.559Z,66.14
2023-04-04T05:33:18.573Z,65.34
2023-04-04T05:34:18.542Z,66.20
2023-04-04T05:35:18.593Z,66.33
2023-04-04T05:36:18.572Z,66.64
2023-04-04T05:37:18.522Z,66.78
2023-04-04T05:38:18.539Z,67.61
2023-04-04T05:39:19.516Z,66.93
2023-04-04T05:40:18.496Z,66.31
2023-04-04T05:41:18.486Z,64.92
2023-04-04T05:42:18.483Z,63.07
2023-04-04T05:43:18.499Z,61.81
2023-04-04T05:44:18.465Z,61.77
2023-04-04T05:45:18.452Z,62.62
2023-04-04T05:46:18.482Z,63.07
2023-04-04T05:47:18.438Z,61.96
2023-04-04T05:48:18.466Z,60.29
2023-04-04T05:49:18.420Z,59.82
2023-04-04T05:50:18.415Z,59.15
2023-04-04T05:51:19.418Z,56.95
2023-04-04T05:52:18.396Z,56.77
2023-04-04T05:53:18.417Z,58.05
2023-04-04T05:54:18.389Z,58.46
2023-04-04T05:55:18.375Z,58.56
2023-04-04T05:56:18.379Z,57.71
2023-04-04T05:57:18.360Z,57.46
2023-04-04T05:58:18.361Z,55.90
2023-04-04T05:59:18.438Z,54.72
2023-04-04T06:00:18.357Z,53.16
2023-04-04T06:01:18.330Z,53.34
2023-04-04T06:02:18.352Z,52.67
2023-04-04T06:03:21.180Z,52.17
2023-04-04T06:04:19.333Z,50.41
2023-04-04T06:05:18.308Z,50.41
2023-04-04T06:06:18.335Z,50.61
2023-04-04T06:07:18.286Z,49.18
2023-04-04T06:08:18.282Z,49.71
2023-04-04T06:09:18.297Z,50.68
2023-04-04T06:10:18.270Z,50.52
2023-04-04T06:11:18.254Z,51.86
2023-04-04T06:12:18.246Z,52.64
2023-04-04T06:13:18.242Z,53.61
2023-04-04T06:14:18.253Z,55.21
2023-04-04T06:15:18.221Z,55.13
2023-04-04T06:16:18.252Z,57.10
2023-04-04T06:17:18.205Z,57.75
2023-04-04T06:18:18.199Z,57.57
2023-04-04T06:19:20.123Z,58.86
2023-04-04T06:20:18.184Z,59.42
2023-04-04T06:21:18.175Z,60.00
2023-04-04T06:22:18.165Z,61.47
2023-04-04T06:23:18.154Z,62.53
2023-04-04T06:24:18.171Z,63.18
2023-04-04T06:25:18.139Z,64.00
2023-04-04T06:26:18.126Z,64.56
2023-04-04T06:27:18.123Z,62.96
2023-04-04T06:28:18.160Z,60.81
2023-04-04T06:29:18.141Z,58.95
2023-04-04T06:30:18.117Z,58.28
2023-04-04T06:31:18.104Z,56.69
2023-04-04T06:32:18.122Z,54.67
2023-04-04T06:33:18.080Z,52.98
2023-04-04T06:34:18.093Z,52.87
2023-04-04T06:35:19.999Z,52.93
2023-04-04T06:36:19.056Z,53.16
2023-04-04T06:37:18.037Z,53.77
2023-04-04T06:38:18.031Z,53.77
2023-04-04T06:39:18.048Z,53.34
2023-04-04T06:40:18.019Z,52.70
2023-04-04T06:41:18.011Z,52.29
2023-04-04T06:42:18.002Z,51.78
2023-04-04T06:43:18.000Z,51.91
2023-04-04T06:44:18.016Z,52.93
2023-04-04T06:45:17.997Z,53.23
2023-04-04T06:46:17.993Z,53.13
2023-04-04T06:47:17.966Z,51.78
2023-04-04T06:48:17.966Z,51.25
2023-04-04T06:49:17.981Z,52.42
2023-04-04T06:50:17.943Z,52.85
2023-04-04T06:51:17.932Z,52.67
2023-04-04T06:52:17.917Z,52.57
2023-04-04T06:53:17.921Z,52.83
2023-04-04T06:54:17.932Z,51.70
2023-04-04T06:55:17.897Z,52.72
2023-04-04T06:56:17.885Z,52.34
2023-04-04T06:57:17.881Z,51.21
2023-04-04T06:58:17.874Z,50.81
2023-04-04T06:59:17.906Z,51.83
2023-04-04T07:00:17.855Z,51.40
2023-04-04T07:01:17.883Z,50.68
2023-04-04T07:02:17.866Z,49.95
2023-04-04T07:03:17.870Z,48.21
2023-04-04T07:04:17.852Z,51.32
2023-04-04T07:05:17.882Z,50.50
2023-04-04T07:06:17.809Z,51.01
2023-04-04T07:07:17.807Z,50.71
2023-04-04T07:08:17.844Z,50.50
2023-04-04T07:09:28.011Z,50.73
2023-04-04T07:10:19.782Z,50.01
2023-04-04T07:11:17.774Z,51.62
2023-04-04T07:12:17.787Z,51.06
2023-04-04T07:13:17.765Z,52.90
2023-04-04T07:14:17.784Z,53.51
2023-04-04T07:15:17.758Z,52.90
2023-04-04T07:16:17.770Z,51.46
2023-04-04T07:17:24.599Z,52.04
2023-04-04T07:18:19.717Z,52.61
2023-04-04T07:19:17.739Z,54.74
2023-04-04T07:20:17.714Z,55.46
2023-04-04T07:21:17.699Z,53.51
2023-04-04T07:22:17.702Z,54.61
2023-04-04T07:23:17.689Z,54.97
2023-04-04T07:24:17.700Z,57.16
2023-04-04T07:25:17.672Z,54.49
2023-04-04T07:26:17.662Z,55.08
2023-04-04T07:27:17.661Z,55.36
2023-04-04T07:28:17.663Z,54.92
2023-04-04T07:29:17.695Z,53.30
2023-04-04T07:30:17.631Z,55.66
2023-04-04T07:31:17.632Z,55.49
2023-04-04T07:32:17.625Z,55.26
2023-04-04T07:33:17.610Z,53.56
2023-04-04T07:34:17.633Z,52.92
2023-04-04T07:35:17.601Z,51.77
2023-04-04T07:36:17.633Z,51.77
2023-04-04T07:37:17.594Z,53.08
2023-04-04T07:38:17.590Z,54.30
2023-04-04T07:39:17.587Z,54.92
2023-04-04T07:40:17.555Z,55.05
2023-04-04T07:41:17.556Z,57.36
2023-04-04T07:42:17.541Z,57.29
2023-04-04T07:43:17.556Z,59.64
2023-04-04T07:44:17.551Z,59.12
2023-04-04T07:45:17.520Z,60.83
2023-04-04T07:46:17.587Z,61.07
2023-04-04T07:47:17.504Z,60.94
2023-04-04T07:48:17.507Z,64.20
2023-04-04T07:49:17.513Z,60.26
2023-04-04T07:50:17.486Z,61.45
2023-04-04T07:51:17.470Z,61.92
2023-04-04T07:52:17.470Z,61.62
2023-04-04T07:53:17.459Z,63.89
2023-04-04T07:54:17.466Z,65.68
2023-04-04T07:55:17.436Z,66.41
2023-04-04T07:56:17.440Z,66.20
2023-04-04T07:57:17.417Z,66.82
2023-04-04T07:58:17.421Z,67.44
2023-04-04T07:59:17.444Z,67.76
2023-04-04T08:00:17.397Z,66.64
2023-04-04T08:01:17.395Z,67.55
2023-04-04T08:02:17.444Z,70.04
2023-04-04T08:03:17.557Z,67.99
2023-04-04T08:04:17.452Z,67.96
2023-04-04T08:05:17.364Z,64.92
2023-04-04T08:06:17.350Z,65.44
2023-04-04T08:07:17.352Z,67.69
2023-04-04T08:08:17.358Z,65.19
2023-04-04T08:09:17.350Z,64.07
2023-04-04T08:10:17.351Z,61.80
2023-04-04T08:11:17.313Z,62.21
2023-04-04T08:12:17.308Z,63.28
2023-04-04T08:13:17.303Z,64.34
2023-04-04T08:14:17.313Z,64.86
2023-04-04T08:15:17.301Z,63.28
2023-04-04T08:16:17.299Z,63.93
2023-04-04T08:17:17.267Z,62.11
2023-04-04T08:18:17.263Z,63.25
2023-04-04T08:19:17.279Z,63.01
2023-04-04T08:20:17.246Z,62.18
2023-04-04T08:21:17.235Z,62.18
2023-04-04T08:22:17.236Z,61.57
2023-04-04T08:23:17.227Z,63.32
2023-04-04T08:24:17.235Z,62.94
2023-04-04T08:25:17.210Z,61.83
2023-04-04T08:26:17.199Z,64.76
2023-04-04T08:27:17.184Z,66.11
2023-04-04T08:28:17.194Z,64.62
2023-04-04T08:29:17.195Z,66.18
2023-04-04T08:30:17.168Z,63.28
2023-04-04T08:31:17.199Z,63.66
2023-04-04T08:32:17.142Z,62.84
2023-04-04T08:33:17.190Z,62.35
2023-04-04T08:34:17.152Z,64.18
2023-04-04T08:35:17.128Z,63.48
2023-04-04T08:36:17.121Z,61.69
2023-04-04T08:37:17.141Z,61.25
2023-04-04T08:38:17.104Z,60.86
2023-04-04T08:39:17.115Z,58.12
2023-04-04T08:40:17.116Z,55.90
2023-04-04T08:41:17.086Z,54.36
2023-04-04T08:42:17.098Z,51.87
2023-04-04T08:43:17.062Z,50.72
2023-04-04T08:44:17.081Z,48.65
2023-04-04T08:45:17.056Z,50.38
2023-04-04T08:46:17.063Z,53.09
2023-04-04T08:47:17.034Z,54.77
2023-04-04T08:48:17.020Z,57.03
2023-04-04T08:49:17.054Z,57.26
2023-04-04T08:50:17.042Z,58.84
2023-04-04T08:51:17.003Z,60.14
2023-04-04T08:52:16.992Z,61.30
2023-04-04T08:53:16.984Z,60.16
2023-04-04T08:54:17.008Z,61.33
2023-04-04T08:55:16.976Z,61.57
2023-04-04T08:56:16.963Z,60.25
2023-04-04T08:57:16.955Z,62.35
2023-04-04T08:58:16.947Z,60.72
2023-04-04T08:59:17.028Z,63.51
2023-04-04T09:00:17.596Z,62.55
2023-04-04T09:01:16.974Z,60.89
2023-04-04T09:02:17.232Z,60.89
2023-04-04T09:03:16.988Z,61.31
2023-04-04T09:04:16.909Z,64.18
2023-04-04T09:05:16.921Z,63.22
2023-04-04T09:06:16.889Z,61.33
2023-04-04T09:07:16.895Z,60.65
2023-04-04T09:08:16.875Z,59.64
2023-04-04T09:09:16.872Z,61.25
2023-04-04T09:10:16.882Z,60.35
2023-04-04T09:11:16.851Z,62.55
2023-04-04T09:12:16.842Z,61.55
2023-04-04T09:13:16.993Z,63.34
2023-04-04T09:14:16.826Z,64.86
2023-04-04T09:15:16.866Z,64.69
2023-04-04T09:16:16.837Z,63.41
2023-04-04T09:17:16.808Z,63.54
2023-04-04T09:18:16.792Z,65.80
2023-04-04T09:19:16.785Z,64.94
2023-04-04T09:20:16.811Z,62.45
2023-04-04T09:21:16.767Z,64.62
2023-04-04T09:22:16.770Z,63.41
2023-04-04T09:23:16.748Z,62.14
2023-04-04T09:24:16.742Z,62.97
2023-04-04T09:25:16.858Z,63.31
2023-04-04T09:26:16.728Z,63.51
2023-04-04T09:27:16.723Z,64.76
2023-04-04T09:28:16.710Z,66.11
2023-04-04T09:29:16.700Z,64.76
2023-04-04T09:30:16.719Z,63.48
2023-04-04T09:31:16.688Z,64.11
2023-04-04T09:32:16.729Z,65.14
2023-04-04T09:33:16.680Z,65.04
2023-04-04T09:34:16.674Z,65.25
2023-04-04T09:35:16.677Z,64.52
2023-04-04T09:36:18.293Z,63.28
2023-04-04T09:37:17.713Z,65.04
2023-04-04T09:38:16.656Z,63.38
2023-04-04T09:39:16.661Z,63.43
2023-04-04T09:40:16.685Z,63.43
2023-04-04T09:41:16.674Z,63.23
2023-04-04T09:42:16.784Z,60.91
2023-04-04T09:43:16.596Z,60.01
2023-04-04T09:44:16.594Z,61.02
2023-04-04T09:45:22.275Z,59.00
2023-04-04T09:46:18.585Z,59.36
2023-04-04T09:47:27.766Z,59.44
2023-04-04T09:48:17.555Z,59.85
2023-04-04T09:49:16.554Z,60.52
2023-04-04T09:50:16.569Z,59.18
2023-04-04T09:51:16.543Z,57.53
2023-04-04T09:52:16.526Z,56.34
2023-04-04T09:53:16.514Z,56.13
2023-04-04T09:54:28.869Z,55.59
2023-04-04T09:55:18.532Z,57.34
2023-04-04T09:56:16.499Z,57.89
2023-04-04T09:57:16.491Z,56.98
2023-04-04T09:58:16.489Z,59.46
2023-04-04T09:59:16.541Z,58.66
2023-04-04T10:00:16.496Z,58.15
2023-04-04T10:01:16.486Z,58.66
2023-04-04T10:02:16.454Z,58.81
2023-04-04T10:03:16.444Z,57.45
2023-04-04T10:04:16.454Z,55.87
2023-04-04T10:05:16.447Z,53.71
2023-04-04T10:06:16.415Z,54.02
2023-04-04T10:07:16.409Z,55.26
2023-04-04T10:08:16.398Z,53.48
2023-04-04T10:09:16.390Z,54.74
2023-04-04T10:10:16.409Z,54.48
2023-04-04T10:11:16.385Z,55.43
2023-04-04T10:12:16.374Z,59.14
2023-04-04T10:13:16.357Z,57.93
2023-04-04T10:14:16.349Z,58.76
2023-04-04T10:15:16.368Z,55.26
2023-04-04T10:16:16.378Z,55.87
2023-04-04T10:17:16.329Z,58.06
2023-04-04T10:18:16.345Z,56.34
2023-04-04T10:19:16.329Z,57.19
2023-04-04T10:20:16.341Z,55.43
2023-04-04T10:21:16.301Z,56.54
2023-04-04T10:22:16.297Z,57.11
2023-04-04T10:23:16.287Z,58.25
2023-04-04T10:24:16.305Z,58.86
2023-04-04T10:25:16.307Z,58.65
2023-04-04T10:26:16.284Z,58.25
2023-04-04T10:27:16.265Z,59.20
2023-04-04T10:28:16.252Z,58.73
2023-04-04T10:29:16.240Z,58.69
2023-04-04T10:30:16.242Z,59.92
2023-04-04T10:31:16.319Z,60.89
2023-04-04T10:32:16.212Z,59.12
2023-04-04T10:33:16.244Z,57.18
2023-04-04T10:34:16.218Z,57.55
2023-04-04T10:35:16.451Z,56.83
2023-04-04T10:36:16.263Z,55.80
2023-04-04T10:37:16.174Z,54.94
2023-04-04T10:38:16.184Z,55.13
2023-04-04T10:39:16.162Z,57.24
2023-04-04T10:40:16.152Z,53.58
2023-04-04T10:41:16.169Z,55.62
2023-04-04T10:42:16.147Z,55.23
2023-04-04T10:43:16.139Z,55.21
2023-04-04T10:44:16.136Z,53.81
2023-04-04T10:45:20.451Z,53.35
2023-04-04T10:46:17.205Z,54.97
2023-04-04T10:47:16.112Z,55.38
2023-04-04T10:48:16.112Z,52.84
2023-04-04T10:49:16.084Z,54.85
2023-04-04T10:50:16.081Z,58.97
2023-04-04T10:51:16.094Z,60.67
2023-04-04T10:52:16.060Z,59.18
2023-04-04T10:53:16.045Z,61.61
2023-04-04T10:54:16.043Z,62.85
2023-04-04T10:55:16.029Z,63.68
2023-04-04T10:56:16.057Z,61.66
2023-04-04T10:57:16.015Z,61.91
2023-04-04T10:58:16.009Z,60.67
2023-04-04T10:59:16.081Z,60.36
2023-04-04T11:00:16.003Z,59.90
2023-04-04T11:01:16.049Z,60.73
2023-04-04T11:02:15.998Z,61.83
2023-04-04T11:03:15.976Z,59.69
2023-04-04T11:04:17.894Z,59.77
2023-04-04T11:05:15.957Z,63.31
2023-04-04T11:06:15.993Z,59.83
2023-04-04T11:07:15.948Z,60.06
2023-04-04T11:08:15.973Z,61.71
2023-04-04T11:09:15.933Z,61.02
2023-04-04T11:10:15.930Z,61.46
2023-04-04T11:11:22.602Z,62.08
2023-04-04T11:12:17.934Z,64.12
2023-04-04T11:13:15.911Z,61.02
2023-04-04T11:14:15.885Z,60.16
2023-04-04T11:15:15.885Z,60.65
2023-04-04T11:16:15.999Z,64.03
2023-04-04T11:17:15.872Z,63.31
2023-04-04T11:18:31.620Z,60.27
2023-04-04T11:19:17.854Z,60.60
2023-04-04T11:20:15.849Z,62.95
2023-04-04T11:21:15.863Z,64.78
2023-04-04T11:22:15.820Z,62.93
2023-04-04T11:23:15.811Z,63.68
2023-04-04T11:24:15.834Z,60.81
2023-04-04T11:25:15.800Z,60.68
2023-04-04T11:26:15.814Z,59.62
2023-04-04T11:27:15.792Z,59.80
2023-04-04T11:28:15.788Z,60.05
2023-04-04T11:29:15.768Z,58.69
2023-04-04T11:30:15.772Z,60.33
2023-04-04T11:31:15.781Z,58.71
2023-04-04T11:32:15.805Z,59.95
2023-04-04T11:33:15.745Z,61.22
2023-04-04T11:34:15.744Z,64.73
2023-04-04T11:35:15.726Z,64.21
2023-04-04T11:36:15.795Z,58.97
2023-04-04T11:37:15.701Z,58.79
2023-04-04T11:38:15.696Z,64.96
2023-04-04T11:39:15.829Z,62.43
2023-04-04T11:40:15.677Z,59.18
2023-04-04T11:41:15.703Z,62.20
2023-04-04T11:42:15.665Z,59.83
2023-04-04T11:43:15.657Z,61.40
2023-04-04T11:44:15.646Z,59.44
2023-04-04T11:45:15.639Z,60.55
2023-04-04T11:46:15.653Z,62.72
2023-04-04T11:47:15.650Z,60.83
2023-04-04T11:48:15.620Z,58.48
2023-04-04T11:49:15.610Z,58.97
2023-04-04T11:50:15.612Z,59.39
2023-04-04T11:51:15.585Z,59.80
2023-04-04T11:52:15.628Z,60.18
2023-04-04T11:53:15.584Z,59.05
2023-04-04T11:54:15.566Z,58.43
2023-04-04T11:55:15.556Z,58.92
2023-04-04T11:56:15.555Z,57.37
2023-04-04T11:57:15.574Z,58.50
2023-04-04T11:58:15.533Z,58.79
2023-04-04T11:59:15.550Z,59.20
2023-04-04T12:00:15.612Z,58.97
2023-04-04T12:01:15.514Z,57.21
2023-04-04T12:02:15.534Z,61.03
2023-04-04T12:03:15.535Z,57.01
2023-04-04T12:04:15.502Z,56.39
2023-04-04T12:05:15.537Z,57.86
2023-04-04T12:06:15.507Z,55.90
2023-04-04T12:07:15.487Z,55.36
2023-04-04T12:08:15.462Z,55.26
2023-04-04T12:09:15.445Z,56.98
2023-04-04T12:10:15.464Z,55.02
2023-04-04T12:11:15.469Z,57.91
2023-04-04T12:12:15.454Z,57.62
2023-04-04T12:13:15.425Z,56.90
2023-04-04T12:14:15.421Z,55.87
2023-04-04T12:15:17.781Z,55.46
2023-04-04T12:16:16.459Z,57.81
2023-04-04T12:17:15.409Z,57.91
2023-04-04T12:18:15.383Z,58.01
2023-04-04T12:19:15.380Z,59.84
2023-04-04T12:20:15.363Z,57.57
2023-04-04T12:21:15.353Z,55.74
2023-04-04T12:22:15.377Z,57.16
2023-04-04T12:23:15.342Z,55.21
2023-04-04T12:24:15.344Z,57.37
2023-04-04T12:25:15.326Z,55.38
2023-04-04T12:26:15.319Z,56.31
2023-04-04T12:27:15.332Z,54.56
2023-04-04T12:28:15.307Z,53.74
2023-04-04T12:29:15.295Z,56.44
2023-04-04T12:30:15.297Z,55.41
2023-04-04T12:31:15.331Z,59.70
2023-04-04T12:32:15.302Z,59.91
2023-04-04T12:33:15.273Z,57.06
2023-04-04T12:34:16.249Z,57.26
2023-04-04T12:35:16.249Z,57.60
2023-04-04T12:36:15.291Z,55.13
2023-04-04T12:37:15.255Z,55.41
2023-04-04T12:38:15.216Z,55.93
2023-04-04T12:39:15.213Z,54.58
2023-04-04T12:40:15.216Z,53.76
2023-04-04T12:41:15.203Z,53.14
2023-04-04T12:42:15.205Z,55.80
2023-04-04T12:43:16.182Z,53.63
2023-04-04T12:44:15.184Z,53.41
2023-04-04T12:45:15.157Z,54.33
2023-04-04T12:46:15.193Z,56.18
2023-04-04T12:47:15.173Z,53.79
2023-04-04T12:48:15.138Z,53.66
2023-04-04T12:49:15.121Z,53.58
2023-04-04T12:50:15.115Z,57.18
2023-04-04T12:51:15.119Z,58.75
2023-04-04T12:52:15.132Z,55.07